Vernon, Arizona
Current Conditions -  °F | °C
As of 10:55 AM on Sunday 21 Dec 2014 (Local Time) from KSOW Reporting Station
Clear Clear  
Wind Chill: 46°   Ceiling: Unl
Heat Index: 46°   Visibility: 10mi
Dew Point: 21°   Wind: 0mph
Humidity: 37%   Direction: NA
Pressure: 30.14"   Gusts: NA
Location:  34.26°N, 109.69°W
Report Text: KSOW 211755Z AUTO 00000KT 10SM CLR 08/M06 A3014 RMK AO2
Loading
Personal Weather Stations






























Interactive Weather Map New forecast layout! Learn more

10-Day Weather Forecast

Advertisements
Track Severe Weather on mobile